sensor_id;sensor_type;location;lat;lon;timestamp;pressure;altitude;pressure_sealevel;temperature;humidity
77106;BME280;66057;54.718;18.426;2023-07-13T00:00:29;47353.50;;;-143.26;77.23
77106;BME280;66057;54.718;18.426;2023-07-13T00:03:16;47334.00;;;-143.26;78.25
77106;BME280;66057;54.718;18.426;2023-07-13T00:05:42;47330.09;;;-143.26;78.74
77106;BME280;66057;54.718;18.426;2023-07-13T00:08:08;47349.63;;;-143.26;78.53
77106;BME280;66057;54.718;18.426;2023-07-13T00:10:38;47322.31;;;-143.26;77.78
77106;BME280;66057;54.718;18.426;2023-07-13T00:13:04;47341.81;;;-143.26;77.46
77106;BME280;66057;54.718;18.426;2023-07-13T00:15:29;47322.31;;;-143.26;78.44
77106;BME280;66057;54.718;18.426;2023-07-13T00:17:57;47326.19;;;-143.26;78.63
77106;BME280;66057;54.718;18.426;2023-07-13T00:20:24;47361.31;;;-143.26;79.22
77106;BME280;66057;54.718;18.426;2023-07-13T00:22:53;47330.09;;;-143.26;78.94
77106;BME280;66057;54.718;18.426;2023-07-13T00:25:20;47341.81;;;-143.26;79.04
77106;BME280;66057;54.718;18.426;2023-07-13T00:27:47;47349.63;;;-143.26;78.51
77106;BME280;66057;54.718;18.426;2023-07-13T00:30:14;47345.72;;;-143.26;78.28
77106;BME280;66057;54.718;18.426;2023-07-13T00:32:40;47380.81;;;-143.26;78.51
77106;BME280;66057;54.718;18.426;2023-07-13T00:35:06;47357.41;;;-143.26;78.52
77106;BME280;66057;54.718;18.426;2023-07-13T00:37:32;47328.16;;;-143.26;78.31
77106;BME280;66057;54.718;18.426;2023-07-13T00:39:58;47349.63;;;-143.26;77.88
77106;BME280;66057;54.718;18.426;2023-07-13T00:42:24;47339.84;;;-143.26;78.35
77106;BME280;66057;54.718;18.426;2023-07-13T00:47:37;47353.50;;;-143.26;78.72
77106;BME280;66057;54.718;18.426;2023-07-13T00:50:07;47371.06;;;-143.26;78.03
77106;BME280;66057;54.718;18.426;2023-07-13T00:52:36;47353.50;;;-143.26;78.79
77106;BME280;66057;54.718;18.426;2023-07-13T00:55:02;47353.50;;;-143.26;78.35
77106;BME280;66057;54.718;18.426;2023-07-13T00:57:28;47347.66;;;-143.26;78.70
77106;BME280;66057;54.718;18.426;2023-07-13T00:59:57;47359.38;;;-143.26;77.76
77106;BME280;66057;54.718;18.426;2023-07-13T01:02:25;47306.69;;;-143.26;78.40
77106;BME280;66057;54.718;18.426;2023-07-13T01:04:51;47369.13;;;-143.26;78.79
77106;BME280;66057;54.718;18.426;2023-07-13T01:07:18;47376.94;;;-143.26;78.63
77106;BME280;66057;54.718;18.426;2023-07-13T01:09:44;47363.28;;;-143.26;78.98
77106;BME280;66057;54.718;18.426;2023-07-13T01:12:11;47349.63;;;-143.26;79.12
77106;BME280;66057;54.718;18.426;2023-07-13T01:14:36;47351.56;;;-143.26;79.35
77106;BME280;66057;54.718;18.426;2023-07-13T01:17:02;47332.06;;;-143.26;78.65
77106;BME280;66057;54.718;18.426;2023-07-13T01:19:43;47339.84;;;-143.26;78.85
77106;BME280;66057;54.718;18.426;2023-07-13T01:22:14;47355.47;;;-143.26;78.88
77106;BME280;66057;54.718;18.426;2023-07-13T01:24:43;47322.31;;;-143.26;78.84
77106;BME280;66057;54.718;18.426;2023-07-13T01:27:11;47357.41;;;-143.26;78.39
77106;BME280;66057;54.718;18.426;2023-07-13T01:29:39;47357.41;;;-143.26;78.18
77106;BME280;66057;54.718;18.426;2023-07-13T01:32:14;47355.47;;;-143.26;78.69
77106;BME280;66057;54.718;18.426;2023-07-13T01:34:40;47349.63;;;-143.26;78.68
77106;BME280;66057;54.718;18.426;2023-07-13T01:37:10;47359.38;;;-143.26;78.83
77106;BME280;66057;54.718;18.426;2023-07-13T01:39:36;47332.06;;;-143.26;78.92
77106;BME280;66057;54.718;18.426;2023-07-13T01:42:03;47373.03;;;-143.26;78.76
77106;BME280;66057;54.718;18.426;2023-07-13T01:44:47;47359.38;;;-143.26;78.97
77106;BME280;66057;54.718;18.426;2023-07-13T01:47:12;47314.50;;;-143.26;78.62
77106;BME280;66057;54.718;18.426;2023-07-13T01:49:41;47335.97;;;-143.26;77.93
77106;BME280;66057;54.718;18.426;2023-07-13T01:52:07;47380.81;;;-143.26;77.62
77106;BME280;66057;54.718;18.426;2023-07-13T01:54:33;47334.00;;;-143.26;77.78
77106;BME280;66057;54.718;18.426;2023-07-13T01:56:59;47337.91;;;-143.26;77.44
77106;BME280;66057;54.718;18.426;2023-07-13T01:59:25;47361.31;;;-143.26;78.21
77106;BME280;66057;54.718;18.426;2023-07-13T02:01:51;47351.56;;;-143.26;77.74
77106;BME280;66057;54.718;18.426;2023-07-13T02:04:17;47341.81;;;-143.26;78.84
77106;BME280;66057;54.718;18.426;2023-07-13T02:06:42;47337.91;;;-143.26;78.89
77106;BME280;66057;54.718;18.426;2023-07-13T02:09:08;47326.19;;;-143.26;78.98
77106;BME280;66057;54.718;18.426;2023-07-13T02:11:34;47339.84;;;-143.26;79.19
77106;BME280;66057;54.718;18.426;2023-07-13T02:14:00;47349.63;;;-143.26;79.12
77106;BME280;66057;54.718;18.426;2023-07-13T02:16:30;47324.25;;;-143.26;79.45
77106;BME280;66057;54.718;18.426;2023-07-13T02:18:56;47361.31;;;-143.26;79.42
77106;BME280;66057;54.718;18.426;2023-07-13T02:21:22;47343.75;;;-143.26;79.07
77106;BME280;66057;54.718;18.426;2023-07-13T02:23:49;47343.75;;;-143.26;79.01
77106;BME280;66057;54.718;18.426;2023-07-13T02:26:15;47361.31;;;-143.26;79.10
77106;BME280;66057;54.718;18.426;2023-07-13T02:28:41;47361.31;;;-143.26;78.93
77106;BME280;66057;54.718;18.426;2023-07-13T02:31:12;47369.13;;;-143.26;78.74
77106;BME280;66057;54.718;18.426;2023-07-13T02:33:38;47345.72;;;-143.26;78.86
77106;BME280;66057;54.718;18.426;2023-07-13T02:36:05;47355.47;;;-143.26;78.48
77106;BME280;66057;54.718;18.426;2023-07-13T02:38:32;47369.13;;;-143.26;78.39
77106;BME280;66057;54.718;18.426;2023-07-13T02:40:59;47369.13;;;-143.26;77.98
77106;BME280;66057;54.718;18.426;2023-07-13T02:43:25;47353.50;;;-143.26;78.63
77106;BME280;66057;54.718;18.426;2023-07-13T02:45:51;47337.91;;;-143.26;77.98
77106;BME280;66057;54.718;18.426;2023-07-13T02:48:17;47334.00;;;-143.26;78.26
77106;BME280;66057;54.718;18.426;2023-07-13T02:50:44;47388.63;;;-143.26;78.04
77106;BME280;66057;54.718;18.426;2023-07-13T02:53:10;47330.09;;;-143.26;78.03
77106;BME280;66057;54.718;18.426;2023-07-13T02:55:36;47341.81;;;-143.26;78.40
77106;BME280;66057;54.718;18.426;2023-07-13T02:58:01;47355.47;;;-143.26;78.32
77106;BME280;66057;54.718;18.426;2023-07-13T03:00:27;47369.13;;;-143.26;78.05
77106;BME280;66057;54.718;18.426;2023-07-13T03:02:53;47361.31;;;-143.26;78.72
77106;BME280;66057;54.718;18.426;2023-07-13T03:05:22;47337.91;;;-143.26;78.22
77106;BME280;66057;54.718;18.426;2023-07-13T03:07:48;47345.72;;;-143.26;78.32
77106;BME280;66057;54.718;18.426;2023-07-13T03:10:14;47386.69;;;-143.26;78.14
77106;BME280;66057;54.718;18.426;2023-07-13T03:12:39;47374.97;;;-143.26;77.90
77106;BME280;66057;54.718;18.426;2023-07-13T03:15:05;47326.19;;;-143.26;78.04
77106;BME280;66057;54.718;18.426;2023-07-13T03:17:31;47328.16;;;-143.26;78.55
77106;BME280;66057;54.718;18.426;2023-07-13T03:19:57;47341.81;;;-143.26;78.14
77106;BME280;66057;54.718;18.426;2023-07-13T03:22:22;47341.81;;;-143.26;78.63
77106;BME280;66057;54.718;18.426;2023-07-13T03:24:48;47353.50;;;-143.26;78.37
77106;BME280;66057;54.718;18.426;2023-07-13T03:27:15;47343.75;;;-143.26;78.78
77106;BME280;66057;54.718;18.426;2023-07-13T03:29:41;47341.81;;;-143.26;79.10
77106;BME280;66057;54.718;18.426;2023-07-13T03:32:07;47320.34;;;-143.26;78.49
77106;BME280;66057;54.718;18.426;2023-07-13T03:34:33;47328.16;;;-143.26;79.21
77106;BME280;66057;54.718;18.426;2023-07-13T03:36:58;47349.63;;;-143.26;79.08
77106;BME280;66057;54.718;18.426;2023-07-13T03:39:24;47357.41;;;-143.26;79.19
77106;BME280;66057;54.718;18.426;2023-07-13T03:41:50;47335.97;;;-143.26;79.04
77106;BME280;66057;54.718;18.426;2023-07-13T03:44:16;47347.66;;;-143.26;78.74
77106;BME280;66057;54.718;18.426;2023-07-13T03:46:43;47373.03;;;-143.26;78.98
77106;BME280;66057;54.718;18.426;2023-07-13T03:49:09;47308.66;;;-143.26;79.21
77106;BME280;66057;54.718;18.426;2023-07-13T03:51:35;47376.94;;;-143.26;79.09
77106;BME280;66057;54.718;18.426;2023-07-13T03:54:00;47330.09;;;-143.26;79.00
77106;BME280;66057;54.718;18.426;2023-07-13T03:56:28;47369.13;;;-143.26;79.57
77106;BME280;66057;54.718;18.426;2023-07-13T03:58:54;47361.31;;;-143.26;79.28
77106;BME280;66057;54.718;18.426;2023-07-13T04:01:21;47320.34;;;-143.26;78.79
77106;BME280;66057;54.718;18.426;2023-07-13T04:03:47;47363.28;;;-143.26;79.19
77106;BME280;66057;54.718;18.426;2023-07-13T04:06:26;47318.41;;;-143.26;79.33
77106;BME280;66057;54.718;18.426;2023-07-13T04:08:54;47339.84;;;-143.26;79.14
77106;BME280;66057;54.718;18.426;2023-07-13T04:11:23;47332.06;;;-143.26;79.59
77106;BME280;66057;54.718;18.426;2023-07-13T04:13:49;47326.19;;;-143.26;79.98
77106;BME280;66057;54.718;18.426;2023-07-13T04:16:16;47306.69;;;-143.26;79.87
77106;BME280;66057;54.718;18.426;2023-07-13T04:18:43;47361.31;;;-143.26;78.86
77106;BME280;66057;54.718;18.426;2023-07-13T04:21:09;47337.91;;;-143.26;79.12
77106;BME280;66057;54.718;18.426;2023-07-13T04:23:37;47314.50;;;-143.26;78.78
77106;BME280;66057;54.718;18.426;2023-07-13T04:26:02;47367.16;;;-143.26;78.79
77106;BME280;66057;54.718;18.426;2023-07-13T04:28:28;47337.91;;;-143.26;79.06
77106;BME280;66057;54.718;18.426;2023-07-13T04:30:54;47335.97;;;-143.26;78.70
77106;BME280;66057;54.718;18.426;2023-07-13T04:33:20;47341.81;;;-143.26;78.74
77106;BME280;66057;54.718;18.426;2023-07-13T04:35:52;47357.41;;;-143.26;78.84
77106;BME280;66057;54.718;18.426;2023-07-13T04:38:20;47326.19;;;-143.26;78.70
77106;BME280;66057;54.718;18.426;2023-07-13T04:40:46;47312.56;;;-143.26;78.98
77106;BME280;66057;54.718;18.426;2023-07-13T04:43:12;47295.00;;;-143.26;78.94
77106;BME280;66057;54.718;18.426;2023-07-13T04:45:37;47341.81;;;-143.26;78.74
77106;BME280;66057;54.718;18.426;2023-07-13T04:48:03;47332.06;;;-143.26;78.67
77106;BME280;66057;54.718;18.426;2023-07-13T04:50:29;47306.69;;;-143.26;78.69
77106;BME280;66057;54.718;18.426;2023-07-13T04:52:54;47328.16;;;-143.26;78.53
77106;BME280;66057;54.718;18.426;2023-07-13T04:55:20;47320.34;;;-143.26;78.60
77106;BME280;66057;54.718;18.426;2023-07-13T04:57:47;47318.41;;;-143.26;77.97
77106;BME280;66057;54.718;18.426;2023-07-13T05:00:14;47337.91;;;-143.26;77.74
77106;BME280;66057;54.718;18.426;2023-07-13T05:02:43;47341.81;;;-143.26;77.57
77106;BME280;66057;54.718;18.426;2023-07-13T05:05:09;47334.00;;;-143.26;77.64
77106;BME280;66057;54.718;18.426;2023-07-13T05:07:35;47306.69;;;-143.26;77.77
77106;BME280;66057;54.718;18.426;2023-07-13T05:10:02;47334.00;;;-143.26;77.99
77106;BME280;66057;54.718;18.426;2023-07-13T05:12:28;47328.16;;;-143.26;78.06
77106;BME280;66057;54.718;18.426;2023-07-13T05:14:54;47324.25;;;-143.26;77.58
77106;BME280;66057;54.718;18.426;2023-07-13T05:17:20;47355.47;;;-143.26;77.53
77106;BME280;66057;54.718;18.426;2023-07-13T05:19:45;47349.63;;;-143.26;77.83
77106;BME280;66057;54.718;18.426;2023-07-13T05:22:11;47339.84;;;-143.26;77.62
77106;BME280;66057;54.718;18.426;2023-07-13T05:24:37;47382.78;;;-143.26;77.61
77106;BME280;66057;54.718;18.426;2023-07-13T05:27:03;47330.09;;;-143.26;77.87
77106;BME280;66057;54.718;18.426;2023-07-13T05:29:29;47306.69;;;-143.26;77.61
77106;BME280;66057;54.718;18.426;2023-07-13T05:31:55;47341.81;;;-143.26;77.72
77106;BME280;66057;54.718;18.426;2023-07-13T05:34:20;47345.72;;;-143.26;77.90
77106;BME280;66057;54.718;18.426;2023-07-13T05:36:46;47310.59;;;-143.26;77.78
77106;BME280;66057;54.718;18.426;2023-07-13T05:39:12;47306.69;;;-143.26;78.58
77106;BME280;66057;54.718;18.426;2023-07-13T05:41:38;47308.66;;;-143.26;78.53
77106;BME280;66057;54.718;18.426;2023-07-13T05:44:03;47330.09;;;-143.26;78.85
77106;BME280;66057;54.718;18.426;2023-07-13T05:46:29;47316.44;;;-143.26;80.31
77106;BME280;66057;54.718;18.426;2023-07-13T05:48:55;47349.63;;;-143.26;80.21
77106;BME280;66057;54.718;18.426;2023-07-13T05:51:21;47328.16;;;-143.26;80.48
77106;BME280;66057;54.718;18.426;2023-07-13T05:53:47;47296.94;;;-143.26;80.10
77106;BME280;66057;54.718;18.426;2023-07-13T05:56:13;47287.19;;;-143.26;80.32
77106;BME280;66057;54.718;18.426;2023-07-13T05:58:38;47298.91;;;-143.26;80.34
77106;BME280;66057;54.718;18.426;2023-07-13T06:01:07;47304.75;;;-143.26;80.21
77106;BME280;66057;54.718;18.426;2023-07-13T06:03:33;47312.56;;;-143.26;80.17
77106;BME280;66057;54.718;18.426;2023-07-13T06:05:59;47308.66;;;-143.26;79.87
77106;BME280;66057;54.718;18.426;2023-07-13T06:08:26;47332.06;;;-143.26;80.09
77106;BME280;66057;54.718;18.426;2023-07-13T06:10:52;47277.44;;;-143.26;80.10
77106;BME280;66057;54.718;18.426;2023-07-13T06:13:21;47298.91;;;-143.26;79.60
77106;BME280;66057;54.718;18.426;2023-07-13T06:15:51;47291.09;;;-143.26;79.16
77106;BME280;66057;54.718;18.426;2023-07-13T06:18:16;47308.66;;;-143.26;78.86
77106;BME280;66057;54.718;18.426;2023-07-13T06:20:42;47310.59;;;-143.26;78.83
77106;BME280;66057;54.718;18.426;2023-07-13T06:23:08;47322.31;;;-143.26;78.84
77106;BME280;66057;54.718;18.426;2023-07-13T06:25:33;47347.66;;;-143.26;77.62
77106;BME280;66057;54.718;18.426;2023-07-13T06:27:59;47289.13;;;-143.26;77.67
77106;BME280;66057;54.718;18.426;2023-07-13T06:30:26;47281.34;;;-143.26;77.55
77106;BME280;66057;54.718;18.426;2023-07-13T06:32:52;47277.44;;;-143.26;74.91
77106;BME280;66057;54.718;18.426;2023-07-13T06:35:18;47281.34;;;-143.26;76.00
77106;BME280;66057;54.718;18.426;2023-07-13T06:37:44;47279.38;;;-143.26;75.80
77106;BME280;66057;54.718;18.426;2023-07-13T06:40:10;47265.72;;;-143.26;74.55
77106;BME280;66057;54.718;18.426;2023-07-13T06:42:36;47287.19;;;-143.26;74.58
77106;BME280;66057;54.718;18.426;2023-07-13T06:45:04;47277.44;;;-143.26;74.04
77106;BME280;66057;54.718;18.426;2023-07-13T06:47:30;47291.09;;;-143.26;73.82
77106;BME280;66057;54.718;18.426;2023-07-13T06:49:55;47279.38;;;-143.26;73.80
77106;BME280;66057;54.718;18.426;2023-07-13T06:52:21;47291.09;;;-143.26;73.74
77106;BME280;66057;54.718;18.426;2023-07-13T06:54:47;47283.28;;;-143.26;73.86
77106;BME280;66057;54.718;18.426;2023-07-13T06:57:12;47267.69;;;-143.26;72.93
77106;BME280;66057;54.718;18.426;2023-07-13T06:59:38;47318.41;;;-143.26;72.46
77106;BME280;66057;54.718;18.426;2023-07-13T07:02:04;47271.59;;;-143.26;71.58
77106;BME280;66057;54.718;18.426;2023-07-13T07:04:30;47283.28;;;-143.26;71.38
77106;BME280;66057;54.718;18.426;2023-07-13T07:06:55;47289.13;;;-143.26;69.63
77106;BME280;66057;54.718;18.426;2023-07-13T07:09:24;47295.00;;;-143.26;69.60
77106;BME280;66057;54.718;18.426;2023-07-13T07:11:50;47255.97;;;-143.26;69.60
77106;BME280;66057;54.718;18.426;2023-07-13T07:14:16;47263.78;;;-143.26;68.49
77106;BME280;66057;54.718;18.426;2023-07-13T07:16:43;47263.78;;;-143.26;68.64
77106;BME280;66057;54.718;18.426;2023-07-13T07:19:08;47269.63;;;-143.26;69.11
77106;BME280;66057;54.718;18.426;2023-07-13T07:21:34;47281.34;;;-143.26;68.38
77106;BME280;66057;54.718;18.426;2023-07-13T07:24:00;47252.06;;;-143.26;67.72
77106;BME280;66057;54.718;18.426;2023-07-13T07:26:25;47275.47;;;-143.26;64.40
77106;BME280;66057;54.718;18.426;2023-07-13T07:28:52;47287.19;;;-143.26;63.88
77106;BME280;66057;54.718;18.426;2023-07-13T07:31:17;47244.28;;;-143.26;63.13
77106;BME280;66057;54.718;18.426;2023-07-13T07:33:43;47259.88;;;-143.26;63.70
77106;BME280;66057;54.718;18.426;2023-07-13T07:36:08;47269.63;;;-143.26;64.40
77106;BME280;66057;54.718;18.426;2023-07-13T07:38:34;47263.78;;;-143.26;65.87
77106;BME280;66057;54.718;18.426;2023-07-13T07:41:03;47295.00;;;-143.26;65.91
77106;BME280;66057;54.718;18.426;2023-07-13T07:43:29;47304.75;;;-143.26;65.96
77106;BME280;66057;54.718;18.426;2023-07-13T07:45:54;47252.06;;;-143.26;66.74
77106;BME280;66057;54.718;18.426;2023-07-13T07:48:20;47273.53;;;-143.26;65.74
77106;BME280;66057;54.718;18.426;2023-07-13T07:50:46;47275.47;;;-143.26;65.93
77106;BME280;66057;54.718;18.426;2023-07-13T07:53:11;47244.28;;;-143.26;64.26
77106;BME280;66057;54.718;18.426;2023-07-13T07:55:38;47248.16;;;-143.26;63.40
77106;BME280;66057;54.718;18.426;2023-07-13T07:58:04;47261.81;;;-143.26;63.56
77106;BME280;66057;54.718;18.426;2023-07-13T08:00:30;47271.59;;;-143.26;64.08
77106;BME280;66057;54.718;18.426;2023-07-13T08:02:57;47275.47;;;-143.26;64.71
77106;BME280;66057;54.718;18.426;2023-07-13T08:05:24;47287.19;;;-143.26;64.14
77106;BME280;66057;54.718;18.426;2023-07-13T08:07:50;47257.94;;;-143.26;64.05
77106;BME280;66057;54.718;18.426;2023-07-13T08:10:15;47289.13;;;-143.26;63.58
77106;BME280;66057;54.718;18.426;2023-07-13T08:12:41;47222.81;;;-143.26;63.01
77106;BME280;66057;54.718;18.426;2023-07-13T08:15:11;47236.47;;;-143.26;59.89
77106;BME280;66057;54.718;18.426;2023-07-13T08:17:37;47250.13;;;-143.26;60.40
77106;BME280;66057;54.718;18.426;2023-07-13T08:20:03;47215.00;;;-143.26;61.81
77106;BME280;66057;54.718;18.426;2023-07-13T08:22:30;47255.97;;;-143.26;62.26
77106;BME280;66057;54.718;18.426;2023-07-13T08:24:55;47285.22;;;-143.26;62.41
77106;BME280;66057;54.718;18.426;2023-07-13T08:27:25;47271.59;;;-143.26;61.98
77106;BME280;66057;54.718;18.426;2023-07-13T08:29:51;47232.56;;;-143.26;61.98
77106;BME280;66057;54.718;18.426;2023-07-13T08:32:19;47244.28;;;-143.26;61.78
77106;BME280;66057;54.718;18.426;2023-07-13T08:34:44;47271.59;;;-143.26;61.56
77106;BME280;66057;54.718;18.426;2023-07-13T08:37:10;47236.47;;;-143.26;61.83
77106;BME280;66057;54.718;18.426;2023-07-13T08:39:36;47234.50;;;-143.26;62.09
77106;BME280;66057;54.718;18.426;2023-07-13T08:47:16;47273.53;;;-143.26;60.79
77106;BME280;66057;54.718;18.426;2023-07-13T08:49:43;47199.41;;;-143.26;59.57
77106;BME280;66057;54.718;18.426;2023-07-13T08:52:26;47254.03;;;-143.26;57.81
77106;BME280;66057;54.718;18.426;2023-07-13T08:54:56;47205.25;;;-143.26;57.86
77106;BME280;66057;54.718;18.426;2023-07-13T08:57:31;47224.75;;;-143.26;58.36
77106;BME280;66057;54.718;18.426;2023-07-13T08:59:58;47261.81;;;-143.26;58.13
77106;BME280;66057;54.718;18.426;2023-07-13T09:05:23;47242.31;;;-143.26;58.55
77106;BME280;66057;54.718;18.426;2023-07-13T09:10:41;47232.56;;;-143.26;56.55
77106;BME280;66057;54.718;18.426;2023-07-13T09:15:44;47215.00;;;-143.26;56.37
77106;BME280;66057;54.718;18.426;2023-07-13T09:20:48;47213.06;;;-143.26;56.84
77106;BME280;66057;54.718;18.426;2023-07-13T09:23:16;47236.47;;;-143.26;56.61
77106;BME280;66057;54.718;18.426;2023-07-13T09:25:45;47271.59;;;-143.26;56.67
77106;BME280;66057;54.718;18.426;2023-07-13T09:28:19;47257.94;;;-143.26;57.26
77106;BME280;66057;54.718;18.426;2023-07-13T09:31:01;47275.47;;;-143.26;57.00
77106;BME280;66057;54.718;18.426;2023-07-13T09:33:29;47248.16;;;-143.26;56.63
77106;BME280;66057;54.718;18.426;2023-07-13T09:35:57;47232.56;;;-143.26;56.81
77106;BME280;66057;54.718;18.426;2023-07-13T09:38:26;47232.56;;;-143.26;55.75
77106;BME280;66057;54.718;18.426;2023-07-13T09:43:26;47218.91;;;-143.26;55.74
77106;BME280;66057;54.718;18.426;2023-07-13T09:45:54;47244.28;;;-143.26;55.50
77106;BME280;66057;54.718;18.426;2023-07-13T09:48:21;47263.78;;;-143.26;54.77
77106;BME280;66057;54.718;18.426;2023-07-13T09:50:47;47220.84;;;-143.26;53.64
77106;BME280;66057;54.718;18.426;2023-07-13T09:53:18;47213.06;;;-143.26;53.73
77106;BME280;66057;54.718;18.426;2023-07-13T09:55:48;47228.66;;;-143.26;54.45
77106;BME280;66057;54.718;18.426;2023-07-13T09:58:20;47263.78;;;-143.26;53.47
77106;BME280;66057;54.718;18.426;2023-07-13T10:00:59;47240.38;;;-143.26;53.71
77106;BME280;66057;54.718;18.426;2023-07-13T10:03:28;47244.28;;;-143.26;54.12
77106;BME280;66057;54.718;18.426;2023-07-13T10:05:54;47252.06;;;-143.26;54.93
77106;BME280;66057;54.718;18.426;2023-07-13T10:08:27;47215.00;;;-143.26;55.02
77106;BME280;66057;54.718;18.426;2023-07-13T10:11:10;47226.72;;;-143.26;55.96
77106;BME280;66057;54.718;18.426;2023-07-13T10:13:40;47220.84;;;-143.26;56.38
77106;BME280;66057;54.718;18.426;2023-07-13T10:16:07;47234.50;;;-143.26;55.78
77106;BME280;66057;54.718;18.426;2023-07-13T10:18:39;47215.00;;;-143.26;55.34
77106;BME280;66057;54.718;18.426;2023-07-13T10:21:19;47228.66;;;-143.26;52.86
77106;BME280;66057;54.718;18.426;2023-07-13T10:23:50;47228.66;;;-143.26;52.31
77106;BME280;66057;54.718;18.426;2023-07-13T10:26:22;47228.66;;;-143.26;51.87
77106;BME280;66057;54.718;18.426;2023-07-13T10:28:53;47213.06;;;-143.26;51.03
77106;BME280;66057;54.718;18.426;2023-07-13T10:31:21;47240.38;;;-143.26;50.83
77106;BME280;66057;54.718;18.426;2023-07-13T10:33:48;47224.75;;;-143.26;53.57
77106;BME280;66057;54.718;18.426;2023-07-13T10:36:45;47224.75;;;-143.26;55.66
77106;BME280;66057;54.718;18.426;2023-07-13T10:39:18;47232.56;;;-143.26;56.38
77106;BME280;66057;54.718;18.426;2023-07-13T10:41:48;47203.31;;;-143.26;56.64
77106;BME280;66057;54.718;18.426;2023-07-13T10:44:33;47203.31;;;-143.26;57.60
77106;BME280;66057;54.718;18.426;2023-07-13T10:47:02;47226.72;;;-143.26;56.53
77106;BME280;66057;54.718;18.426;2023-07-13T10:49:33;47224.75;;;-143.26;56.91
77106;BME280;66057;54.718;18.426;2023-07-13T10:52:01;47174.03;;;-143.26;56.93
77106;BME280;66057;54.718;18.426;2023-07-13T10:54:30;47224.75;;;-143.26;56.58
77106;BME280;66057;54.718;18.426;2023-07-13T10:57:16;47240.38;;;-143.26;56.68
77106;BME280;66057;54.718;18.426;2023-07-13T10:59:46;47209.16;;;-143.26;57.41
77106;BME280;66057;54.718;18.426;2023-07-13T11:02:26;47193.53;;;-143.26;56.75
77106;BME280;66057;54.718;18.426;2023-07-13T11:04:54;47232.56;;;-143.26;53.90
77106;BME280;66057;54.718;18.426;2023-07-13T11:10:45;47197.44;;;-143.26;56.85
77106;BME280;66057;54.718;18.426;2023-07-13T11:12:58;47238.41;;;-143.26;57.65
77106;BME280;66057;54.718;18.426;2023-07-13T11:15:42;47244.28;;;-143.26;56.79
77106;BME280;66057;54.718;18.426;2023-07-13T11:18:22;47228.66;;;-143.26;55.79
77106;BME280;66057;54.718;18.426;2023-07-13T11:20:52;47242.31;;;-143.26;56.30
77106;BME280;66057;54.718;18.426;2023-07-13T11:23:42;47205.25;;;-143.26;56.48
77106;BME280;66057;54.718;18.426;2023-07-13T11:31:53;47222.81;;;-143.26;57.94
77106;BME280;66057;54.718;18.426;2023-07-13T11:34:33;47220.84;;;-143.26;57.25
77106;BME280;66057;54.718;18.426;2023-07-13T11:37:01;47197.44;;;-143.26;58.15
77106;BME280;66057;54.718;18.426;2023-07-13T11:39:39;47230.63;;;-143.26;57.15
77106;BME280;66057;54.718;18.426;2023-07-13T11:42:12;47211.09;;;-143.26;56.25
77106;BME280;66057;54.718;18.426;2023-07-13T11:44:46;47236.47;;;-143.26;56.10
77106;BME280;66057;54.718;18.426;2023-07-13T11:47:22;47234.50;;;-143.26;57.70
77106;BME280;66057;54.718;18.426;2023-07-13T11:49:50;47201.34;;;-143.26;56.66
77106;BME280;66057;54.718;18.426;2023-07-13T11:52:21;47197.44;;;-143.26;55.31
77106;BME280;66057;54.718;18.426;2023-07-13T11:54:49;47230.63;;;-143.26;55.86
77106;BME280;66057;54.718;18.426;2023-07-13T11:57:39;47172.09;;;-143.26;53.41
77106;BME280;66057;54.718;18.426;2023-07-13T12:00:16;47135.03;;;-143.26;54.31
77106;BME280;66057;54.718;18.426;2023-07-13T12:02:48;47148.69;;;-143.26;51.76
77106;BME280;66057;54.718;18.426;2023-07-13T12:05:17;47181.84;;;-143.26;50.58
77106;BME280;66057;54.718;18.426;2023-07-13T12:07:44;47119.41;;;-143.26;51.55
77106;BME280;66057;54.718;18.426;2023-07-13T12:10:30;47160.38;;;-143.26;49.81
77106;BME280;66057;54.718;18.426;2023-07-13T12:15:45;47138.94;;;-143.26;51.84
77106;BME280;66057;54.718;18.426;2023-07-13T12:18:19;47146.72;;;-143.26;48.53
77106;BME280;66057;54.718;18.426;2023-07-13T12:20:46;47135.03;;;-143.26;47.10
77106;BME280;66057;54.718;18.426;2023-07-13T12:23:24;47123.31;;;-143.26;46.70
77106;BME280;66057;54.718;18.426;2023-07-13T12:25:52;47119.41;;;-143.26;49.34
77106;BME280;66057;54.718;18.426;2023-07-13T12:28:22;47166.25;;;-143.26;49.31
77106;BME280;66057;54.718;18.426;2023-07-13T12:30:49;47129.16;;;-143.26;49.40
77106;BME280;66057;54.718;18.426;2023-07-13T12:33:16;47135.03;;;-143.26;47.84
77106;BME280;66057;54.718;18.426;2023-07-13T12:35:48;47119.41;;;-143.26;49.20
77106;BME280;66057;54.718;18.426;2023-07-13T12:38:15;47125.28;;;-143.26;47.92
77106;BME280;66057;54.718;18.426;2023-07-13T12:40:42;47111.63;;;-143.26;46.22
77106;BME280;66057;54.718;18.426;2023-07-13T12:43:11;47123.31;;;-143.26;49.38
77106;BME280;66057;54.718;18.426;2023-07-13T12:45:38;47086.25;;;-143.26;48.22
77106;BME280;66057;54.718;18.426;2023-07-13T12:48:15;47084.31;;;-143.26;47.88
77106;BME280;66057;54.718;18.426;2023-07-13T12:50:46;47127.22;;;-143.26;48.87
77106;BME280;66057;54.718;18.426;2023-07-13T12:53:15;47092.09;;;-143.26;49.61
77106;BME280;66057;54.718;18.426;2023-07-13T12:55:50;47099.91;;;-143.26;48.96
77106;BME280;66057;54.718;18.426;2023-07-13T12:58:39;47099.91;;;-143.26;51.18
77106;BME280;66057;54.718;18.426;2023-07-13T13:01:07;47131.13;;;-143.26;50.26
77106;BME280;66057;54.718;18.426;2023-07-13T13:03:37;47084.31;;;-143.26;48.75
77106;BME280;66057;54.718;18.426;2023-07-13T13:06:17;47107.72;;;-143.26;50.00
77106;BME280;66057;54.718;18.426;2023-07-13T13:08:47;47115.50;;;-143.26;50.69